NSFA

Faleolo International Airport

Apia, Samoa
TAF NSFA 252305Z 2600/2624 30008KT 9999 -SHRA SCT018 SCT040 PROB40 TEMPO 2600/2606 3000 TSRA BKN015 FEW017CB
Issued Valid From Valid To
Apr-25 @ 23:05 UTC
(4 hours ago)
Apr-26 @ 00:00 UTC
(3 hours ago)
Apr-27 @ 00:00 UTC
(in 21 hours)
Apr-26 @ 00:00 to Apr-27 @ 00:00
TAF NSFA 252305Z 2600/2624 30008KT 9999 -SHRA SCT018 SCT040
Wind Visibility Clouds Conditions
300° at 8 knots 10,000+ meters
  • Scattered at 1,800' AGL
  • Scattered at 4,000' AGL
  • Light Rain
Temporary  (Probability 40%) Apr-26 @ 00:00 to Apr-26 @ 06:00
PROB40 TEMPO 2600/2606 3000 TSRA BKN015 FEW017CB
Visibility Clouds Conditions
2,993 meters
  • Broken at 1,500' AGL
  • Few at 1,700' AGL
  • Thunderstorm
  • Rain
TAF NSFA 252305Z 2600/2624 30008KT 9999 -SHRA SCT018 SCT040 PROB40 TEMPO 2600/2606 3000 TSRA BKN015 FEW017CB
Issued Apr-25 @ 23:05 UTC
(4 hours ago)
Valid From Apr-26 @ 00:00 UTC
(3 hours ago)
Valid To Apr-27 @ 00:00 UTC
(in 21 hours)
Apr-26 @ 00:00 - Apr-27 @ 00:00
Wind Visibility
300° at 8 knots 10,000+ meters
Clouds
  • Scattered at 1,800' AGL
  • Scattered at 4,000' AGL
Conditions
  • Light Rain
Probability 40% Temporary Apr-26 @ 00:00 - Apr-26 @ 06:00
Clouds
  • Broken at 1,500' AGL
  • Few at 1,700' AGL
Conditions
  • Thunderstorm
  • Rain